createdAt,value
2023-05-09T00:00:39.787Z,12.19
2023-05-09T00:03:06.372Z,12.17
2023-05-09T00:05:33.184Z,12.15
2023-05-09T00:07:59.739Z,12.09
2023-05-09T00:10:27.359Z,12.25
2023-05-09T00:12:53.831Z,12.08
2023-05-09T00:15:20.424Z,12.12
2023-05-09T00:17:47.365Z,12.10
2023-05-09T00:20:14.541Z,12.05
2023-05-09T00:22:41.363Z,12.05
2023-05-09T00:25:11.901Z,12.00
2023-05-09T00:27:38.593Z,12.09
2023-05-09T00:30:05.793Z,11.90
2023-05-09T00:32:33.372Z,11.91
2023-05-09T00:34:59.925Z,11.78
2023-05-09T00:37:26.704Z,11.85
2023-05-09T00:39:53.136Z,11.85
2023-05-09T00:42:19.579Z,11.88
2023-05-09T00:44:46.411Z,11.75
2023-05-09T00:47:12.972Z,11.69
2023-05-09T00:49:39.501Z,11.58
2023-05-09T00:52:06.302Z,11.68
2023-05-09T00:54:33.097Z,11.59
2023-05-09T00:57:00.903Z,11.47
2023-05-09T00:59:27.534Z,11.48
2023-05-09T01:01:54.033Z,11.54
2023-05-09T01:04:20.874Z,11.47
2023-05-09T01:06:55.527Z,11.38
2023-05-09T01:09:32.602Z,11.37
2023-05-09T01:12:11.154Z,11.38
2023-05-09T01:14:52.501Z,11.42
2023-05-09T01:17:31.669Z,11.41
2023-05-09T01:20:26.983Z,11.41
2023-05-09T01:23:10.878Z,11.38
2023-05-09T01:25:53.229Z,11.45
2023-05-09T01:28:32.494Z,11.28
2023-05-09T01:30:59.752Z,11.34
2023-05-09T01:33:28.908Z,11.34
2023-05-09T01:36:01.852Z,11.27
2023-05-09T01:38:32.064Z,11.22
2023-05-09T01:41:00.417Z,11.15
2023-05-09T01:43:29.831Z,11.10
2023-05-09T01:45:58.993Z,11.17
2023-05-09T01:48:30.130Z,11.12
2023-05-09T01:50:58.944Z,11.10
2023-05-09T01:53:27.906Z,11.16
2023-05-09T01:55:56.536Z,11.11
2023-05-09T01:58:24.669Z,11.00
2023-05-09T02:00:51.917Z,11.03
2023-05-09T02:03:21.198Z,11.02
2023-05-09T02:05:49.479Z,10.96
2023-05-09T02:08:21.016Z,11.00
2023-05-09T02:10:49.243Z,10.90
2023-05-09T02:13:16.099Z,10.89
2023-05-09T02:15:43.899Z,10.91
2023-05-09T02:18:10.914Z,10.87
2023-05-09T02:20:37.462Z,10.95
2023-05-09T02:23:04.470Z,10.94
2023-05-09T02:25:33.173Z,10.84
2023-05-09T02:28:01.493Z,10.85
2023-05-09T02:30:33.401Z,10.92
2023-05-09T02:33:04.939Z,10.81
2023-05-09T02:35:31.918Z,10.82
2023-05-09T02:37:59.422Z,10.89
2023-05-09T02:40:28.010Z,10.83
2023-05-09T02:42:54.653Z,10.86
2023-05-09T02:45:21.327Z,10.91
2023-05-09T02:47:47.819Z,10.92
2023-05-09T02:50:14.496Z,10.93
2023-05-09T02:52:41.919Z,10.92
2023-05-09T02:55:09.568Z,10.91
2023-05-09T02:57:39.119Z,10.98
2023-05-09T03:00:09.639Z,10.95
2023-05-09T03:02:37.579Z,10.99
2023-05-09T03:05:06.702Z,10.94
2023-05-09T03:07:35.200Z,10.84
2023-05-09T03:10:02.364Z,10.91
2023-05-09T03:12:31.115Z,10.78
2023-05-09T03:14:57.802Z,10.80
2023-05-09T03:17:24.468Z,10.73
2023-05-09T03:19:50.925Z,10.82
2023-05-09T03:22:17.315Z,10.73
2023-05-09T03:24:55.711Z,10.87
2023-05-09T03:27:22.405Z,10.71
2023-05-09T03:29:50.112Z,10.73
2023-05-09T03:32:18.734Z,10.66
2023-05-09T03:34:45.441Z,10.71
2023-05-09T03:37:12.194Z,10.65
2023-05-09T03:39:40.802Z,10.50
2023-05-09T03:42:07.215Z,10.44
2023-05-09T03:44:34.258Z,10.55
2023-05-09T03:47:00.919Z,10.49
2023-05-09T03:49:33.186Z,10.57
2023-05-09T03:51:59.645Z,10.44
2023-05-09T03:54:26.988Z,10.39
2023-05-09T03:56:53.455Z,10.48
2023-05-09T03:59:20.686Z,10.33
2023-05-09T04:01:47.192Z,10.47
2023-05-09T04:04:13.858Z,10.42
2023-05-09T04:06:40.595Z,10.45
2023-05-09T04:09:09.408Z,10.42
2023-05-09T04:11:36.529Z,10.55
2023-05-09T04:14:07.767Z,10.54
2023-05-09T04:16:36.031Z,10.64
2023-05-09T04:19:02.558Z,10.77
2023-05-09T04:21:29.261Z,10.64
2023-05-09T04:23:59.150Z,10.63
2023-05-09T04:26:38.982Z,10.79
2023-05-09T04:29:08.641Z,10.73
2023-05-09T04:31:36.023Z,10.82
2023-05-09T04:34:03.471Z,10.85
2023-05-09T04:36:34.091Z,10.77
2023-05-09T04:39:00.815Z,10.89
2023-05-09T04:41:28.568Z,10.94
2023-05-09T04:43:55.629Z,10.98
2023-05-09T04:46:25.847Z,11.00
2023-05-09T04:48:52.879Z,11.01
2023-05-09T04:51:20.383Z,11.14
2023-05-09T04:53:46.792Z,11.18
2023-05-09T04:56:15.322Z,11.20
2023-05-09T04:58:42.930Z,11.24
2023-05-09T05:01:10.905Z,11.36
2023-05-09T05:03:38.677Z,11.39
2023-05-09T05:06:06.604Z,11.51
2023-05-09T05:08:33.782Z,11.47
2023-05-09T05:11:00.640Z,11.63
2023-05-09T05:13:27.910Z,11.56
2023-05-09T05:15:58.663Z,11.66
2023-05-09T05:18:25.250Z,11.77
2023-05-09T05:20:51.635Z,11.74
2023-05-09T05:23:18.323Z,11.87
2023-05-09T05:25:44.851Z,11.93
2023-05-09T05:28:13.145Z,12.02
2023-05-09T05:30:41.204Z,12.08
2023-05-09T05:33:07.992Z,12.16
2023-05-09T05:35:34.552Z,12.22
2023-05-09T05:38:01.384Z,12.27
2023-05-09T05:40:28.144Z,12.42
2023-05-09T05:42:55.858Z,12.68
2023-05-09T05:45:23.274Z,12.74
2023-05-09T05:47:53.277Z,12.90
2023-05-09T05:50:20.348Z,13.24
2023-05-09T05:52:47.276Z,13.38
2023-05-09T05:55:15.709Z,13.51
2023-05-09T05:57:42.377Z,13.61
2023-05-09T06:00:14.504Z,13.73
2023-05-09T06:02:45.418Z,13.76
2023-05-09T06:05:19.373Z,13.83
2023-05-09T06:07:46.045Z,13.78
2023-05-09T06:10:12.589Z,13.94
2023-05-09T06:12:38.984Z,13.93
2023-05-09T06:15:07.302Z,13.93
2023-05-09T06:17:37.718Z,13.94
2023-05-09T06:20:04.910Z,13.95
2023-05-09T06:22:31.282Z,14.02
2023-05-09T06:24:57.951Z,14.12
2023-05-09T06:27:24.484Z,14.10
2023-05-09T06:29:52.604Z,14.08
2023-05-09T06:32:19.445Z,14.20
2023-05-09T06:34:45.926Z,14.15
2023-05-09T06:37:12.382Z,14.24
2023-05-09T06:39:38.827Z,14.27
2023-05-09T06:42:05.699Z,14.47
2023-05-09T06:44:37.130Z,14.58
2023-05-09T06:47:03.614Z,14.89
2023-05-09T06:49:30.189Z,15.10
2023-05-09T06:51:56.602Z,15.30
2023-05-09T06:54:23.047Z,15.45
2023-05-09T06:56:49.436Z,15.55
2023-05-09T06:59:16.495Z,15.61
2023-05-09T07:01:43.120Z,15.66
2023-05-09T07:04:09.563Z,15.82
2023-05-09T07:06:35.999Z,15.87
2023-05-09T07:09:03.710Z,15.86
2023-05-09T07:11:37.676Z,15.89
2023-05-09T07:14:04.572Z,15.90
2023-05-09T07:16:31.174Z,16.03
2023-05-09T07:18:57.608Z,16.25
2023-05-09T07:21:24.153Z,16.34
2023-05-09T07:23:50.574Z,16.33
2023-05-09T07:26:16.985Z,16.44
2023-05-09T07:28:43.428Z,16.52
2023-05-09T07:31:10.100Z,16.69
2023-05-09T07:33:36.578Z,16.91
2023-05-09T07:36:03.022Z,17.01
2023-05-09T07:38:29.519Z,17.15
2023-05-09T07:40:55.995Z,17.13
2023-05-09T07:43:22.425Z,17.35
2023-05-09T07:45:48.976Z,17.39
2023-05-09T07:48:15.514Z,17.63
2023-05-09T07:50:42.140Z,17.78
2023-05-09T07:53:08.635Z,17.70
2023-05-09T07:55:35.063Z,17.44
2023-05-09T07:58:01.453Z,17.38
2023-05-09T08:00:27.890Z,17.68
2023-05-09T08:02:54.443Z,17.71
2023-05-09T08:05:21.007Z,17.98
2023-05-09T08:07:47.401Z,18.11
2023-05-09T08:10:14.005Z,18.24
2023-05-09T08:12:40.537Z,18.28
2023-05-09T08:15:07.831Z,18.30
2023-05-09T08:17:34.604Z,18.11
2023-05-09T08:20:01.687Z,18.06
2023-05-09T08:22:28.115Z,18.08
2023-05-09T08:24:54.538Z,18.25
2023-05-09T08:27:20.952Z,18.55
2023-05-09T08:29:47.348Z,18.73
2023-05-09T08:32:14.196Z,18.88
2023-05-09T08:34:40.855Z,19.07
2023-05-09T08:37:07.652Z,19.01
2023-05-09T08:39:37.298Z,18.96
2023-05-09T08:42:04.094Z,19.03
2023-05-09T08:44:31.871Z,19.29
2023-05-09T08:47:02.990Z,19.35
2023-05-09T08:49:30.381Z,19.55
2023-05-09T08:51:57.080Z,19.72
2023-05-09T08:54:24.390Z,19.88
2023-05-09T08:56:51.377Z,19.83
2023-05-09T08:59:18.817Z,19.92
2023-05-09T09:01:45.824Z,20.21
2023-05-09T09:04:12.406Z,20.42
2023-05-09T09:06:40.528Z,20.39
2023-05-09T09:09:08.935Z,20.50
2023-05-09T09:11:38.929Z,20.48
2023-05-09T09:14:12.993Z,20.22
2023-05-09T09:16:41.593Z,20.25
2023-05-09T09:19:12.914Z,20.19
2023-05-09T09:21:44.551Z,20.34
2023-05-09T09:24:14.700Z,20.45
2023-05-09T09:26:49.383Z,20.78
2023-05-09T09:29:17.444Z,20.73
2023-05-09T09:31:47.948Z,20.94
2023-05-09T09:34:22.334Z,20.96
2023-05-09T09:36:49.510Z,21.08
2023-05-09T09:39:16.023Z,21.23
2023-05-09T09:41:44.448Z,21.45
2023-05-09T09:44:15.311Z,21.45
2023-05-09T09:46:47.006Z,21.56
2023-05-09T09:49:14.902Z,21.70
2023-05-09T09:51:42.059Z,21.78
2023-05-09T09:54:10.001Z,21.84
2023-05-09T09:56:47.407Z,21.62
2023-05-09T09:59:16.371Z,21.77
2023-05-09T10:02:07.507Z,22.07
2023-05-09T10:04:36.644Z,22.14
2023-05-09T10:07:06.196Z,21.96
2023-05-09T10:09:34.416Z,21.70
2023-05-09T10:12:07.853Z,21.87
2023-05-09T10:14:36.613Z,22.29
2023-05-09T10:17:05.235Z,22.23
2023-05-09T10:19:32.960Z,22.46
2023-05-09T10:22:08.041Z,22.28
2023-05-09T10:24:40.475Z,22.14
2023-05-09T10:27:11.688Z,22.30
2023-05-09T10:29:44.757Z,22.52
2023-05-09T10:32:53.470Z,22.49
2023-05-09T10:35:33.618Z,22.34
2023-05-09T10:38:02.054Z,22.28
2023-05-09T10:40:29.120Z,22.13
2023-05-09T10:42:55.572Z,22.03
2023-05-09T10:45:22.438Z,22.37
2023-05-09T10:47:51.448Z,22.31
2023-05-09T10:50:18.495Z,22.58
2023-05-09T10:53:11.469Z,22.68
2023-05-09T10:55:47.224Z,22.63
2023-05-09T10:58:20.186Z,22.67
2023-05-09T11:00:48.394Z,22.70
2023-05-09T11:03:15.168Z,22.68
2023-05-09T11:05:41.917Z,22.94
2023-05-09T11:08:25.353Z,22.67
2023-05-09T11:10:54.163Z,22.84
2023-05-09T11:13:25.775Z,22.89
2023-05-09T11:16:01.583Z,23.04
2023-05-09T11:18:32.835Z,23.09
2023-05-09T11:21:08.600Z,23.03
2023-05-09T11:23:35.142Z,23.11
2023-05-09T11:26:06.463Z,23.09
2023-05-09T11:28:37.822Z,22.96
2023-05-09T11:31:18.324Z,23.05
2023-05-09T11:33:49.013Z,23.28
2023-05-09T11:36:20.766Z,22.98
2023-05-09T11:38:47.701Z,22.63
2023-05-09T11:41:14.776Z,22.75
2023-05-09T11:43:44.508Z,22.73
2023-05-09T11:46:11.495Z,22.82
2023-05-09T11:48:39.473Z,22.78
2023-05-09T11:51:06.416Z,22.74
2023-05-09T11:53:33.271Z,22.73
2023-05-09T11:56:04.024Z,22.85
2023-05-09T11:58:31.130Z,22.79
2023-05-09T12:00:57.898Z,22.79
2023-05-09T12:03:25.101Z,22.62
2023-05-09T12:05:51.795Z,22.88
2023-05-09T12:08:18.343Z,23.03
2023-05-09T12:10:44.736Z,23.48
2023-05-09T12:13:11.251Z,23.01
2023-05-09T12:15:38.208Z,23.07
2023-05-09T12:18:06.561Z,23.48
2023-05-09T12:20:52.696Z,23.69
2023-05-09T12:23:19.631Z,23.45
2023-05-09T12:25:53.805Z,23.13
2023-05-09T12:28:22.443Z,23.04
2023-05-09T12:30:50.153Z,23.06
2023-05-09T12:33:17.067Z,23.33
2023-05-09T12:35:47.303Z,23.02
2023-05-09T12:38:15.794Z,22.88
2023-05-09T12:40:44.181Z,22.89
2023-05-09T12:43:10.670Z,22.92
2023-05-09T12:45:39.118Z,23.34
2023-05-09T12:48:06.136Z,23.25
2023-05-09T12:50:36.449Z,23.24
2023-05-09T12:53:04.416Z,23.47
2023-05-09T12:55:31.876Z,23.19
2023-05-09T12:58:03.465Z,23.23
2023-05-09T13:00:42.473Z,23.30
2023-05-09T13:03:26.224Z,23.05
2023-05-09T13:06:02.273Z,22.89
2023-05-09T13:08:29.314Z,22.83
2023-05-09T13:11:08.081Z,22.61
2023-05-09T13:13:42.374Z,22.72
2023-05-09T13:16:10.764Z,22.73
2023-05-09T13:18:38.749Z,22.89
2023-05-09T13:21:05.278Z,22.94
2023-05-09T13:23:32.011Z,23.49
2023-05-09T13:25:58.416Z,23.56
2023-05-09T13:28:24.837Z,23.49
2023-05-09T13:30:51.279Z,23.28
2023-05-09T13:33:25.869Z,23.51
2023-05-09T13:35:53.060Z,23.75
2023-05-09T13:38:19.500Z,23.93
2023-05-09T13:40:46.286Z,23.88
2023-05-09T13:43:12.699Z,23.62
2023-05-09T13:45:39.390Z,23.57
2023-05-09T13:48:06.505Z,23.56
2023-05-09T13:50:34.331Z,23.82
2023-05-09T13:53:02.007Z,23.70
2023-05-09T13:55:29.664Z,23.80
2023-05-09T13:57:56.356Z,23.79
2023-05-09T14:00:25.430Z,24.02
2023-05-09T14:02:52.610Z,24.22
2023-05-09T14:05:19.121Z,24.03
2023-05-09T14:07:45.833Z,24.27
2023-05-09T14:10:12.665Z,24.19
2023-05-09T14:12:39.833Z,24.30
2023-05-09T14:15:07.847Z,24.30
2023-05-09T14:17:34.665Z,24.20
2023-05-09T14:20:01.276Z,23.83
2023-05-09T14:22:28.195Z,23.87
2023-05-09T14:24:56.433Z,23.91
2023-05-09T14:27:23.242Z,23.90
2023-05-09T14:29:49.655Z,23.89
2023-05-09T14:32:16.287Z,23.75
2023-05-09T14:34:42.748Z,23.59
2023-05-09T14:37:13.619Z,23.33
2023-05-09T14:39:45.314Z,23.07
2023-05-09T14:42:13.970Z,23.03
2023-05-09T14:44:41.661Z,22.91
2023-05-09T14:47:09.644Z,22.81
2023-05-09T14:50:02.670Z,22.74
2023-05-09T14:52:29.101Z,22.60
2023-05-09T14:54:55.636Z,22.46
2023-05-09T14:57:22.303Z,22.55
2023-05-09T14:59:48.754Z,22.72
2023-05-09T15:02:15.214Z,22.63
2023-05-09T15:04:43.726Z,22.61
2023-05-09T15:07:10.623Z,22.49
2023-05-09T15:09:37.861Z,22.51
2023-05-09T15:12:04.653Z,22.37
2023-05-09T15:14:31.284Z,22.48
2023-05-09T15:17:01.790Z,22.46
2023-05-09T15:19:31.434Z,22.47
2023-05-09T15:21:59.505Z,22.39
2023-05-09T15:24:26.948Z,22.28
2023-05-09T15:26:54.197Z,22.38
2023-05-09T15:29:21.692Z,22.34
2023-05-09T15:31:48.841Z,22.26
2023-05-09T15:34:15.485Z,22.31
2023-05-09T15:36:41.934Z,22.28
2023-05-09T15:39:08.417Z,22.34
2023-05-09T15:41:35.101Z,22.30
2023-05-09T15:44:01.607Z,22.14
2023-05-09T15:46:28.299Z,22.05
2023-05-09T15:48:56.139Z,22.09
2023-05-09T15:51:22.621Z,21.92
2023-05-09T15:53:49.807Z,21.87
2023-05-09T15:56:16.274Z,21.75
2023-05-09T15:58:42.663Z,21.62
2023-05-09T16:01:12.794Z,21.61
2023-05-09T16:03:39.476Z,21.52
2023-05-09T16:06:06.503Z,21.51
2023-05-09T16:08:33.251Z,21.35
2023-05-09T16:11:02.589Z,21.26
2023-05-09T16:13:30.080Z,21.22
2023-05-09T16:15:56.908Z,21.15
2023-05-09T16:18:23.474Z,21.12
2023-05-09T16:20:49.902Z,20.95
2023-05-09T16:23:16.309Z,21.00
2023-05-09T16:25:42.764Z,21.02
2023-05-09T16:28:09.335Z,20.87
2023-05-09T16:30:36.357Z,20.80
2023-05-09T16:33:02.950Z,20.92
2023-05-09T16:35:29.554Z,20.90
2023-05-09T16:37:56.135Z,20.73
2023-05-09T16:40:22.707Z,20.70
2023-05-09T16:42:49.398Z,20.67
2023-05-09T16:45:15.952Z,20.61
2023-05-09T16:47:42.379Z,20.70
2023-05-09T16:50:10.458Z,20.70
2023-05-09T16:52:37.152Z,20.62
2023-05-09T16:55:04.258Z,20.67
2023-05-09T16:57:31.109Z,20.50
2023-05-09T16:59:58.465Z,20.50
2023-05-09T17:02:24.888Z,20.57
2023-05-09T17:04:51.618Z,20.48
2023-05-09T17:07:18.124Z,20.47
2023-05-09T17:09:44.619Z,20.48
2023-05-09T17:12:17.311Z,20.40
2023-05-09T17:14:45.236Z,20.36
2023-05-09T17:17:12.928Z,20.41
2023-05-09T17:19:39.494Z,20.33
2023-05-09T17:22:06.472Z,20.30
2023-05-09T17:24:33.323Z,20.25
2023-05-09T17:27:01.214Z,20.28
2023-05-09T17:29:30.517Z,20.20
2023-05-09T17:32:01.614Z,20.22
2023-05-09T17:34:28.606Z,20.13
2023-05-09T17:36:55.243Z,20.08
2023-05-09T17:39:21.983Z,20.16
2023-05-09T17:41:48.440Z,20.07
2023-05-09T17:44:15.422Z,19.93
2023-05-09T17:46:42.045Z,19.89
2023-05-09T17:49:10.825Z,19.88
2023-05-09T17:51:37.522Z,19.72
2023-05-09T17:54:05.352Z,19.74
2023-05-09T17:56:32.201Z,19.63
2023-05-09T17:58:59.552Z,19.50
2023-05-09T18:01:26.528Z,19.49
2023-05-09T18:03:53.196Z,19.44
2023-05-09T18:06:19.794Z,19.36
2023-05-09T18:08:46.227Z,19.34
2023-05-09T18:11:12.975Z,19.23
2023-05-09T18:13:39.599Z,19.21
2023-05-09T18:16:06.653Z,19.17
2023-05-09T18:18:34.477Z,19.05
2023-05-09T18:21:02.115Z,18.88
2023-05-09T18:23:28.602Z,19.02
2023-05-09T18:25:55.073Z,18.97
2023-05-09T18:28:27.565Z,18.82
2023-05-09T18:30:56.778Z,18.81
2023-05-09T18:33:24.553Z,18.69
2023-05-09T18:35:52.853Z,18.69
2023-05-09T18:38:19.371Z,18.58
2023-05-09T18:40:46.042Z,18.50
2023-05-09T18:43:12.480Z,18.46
2023-05-09T18:45:39.096Z,18.42
2023-05-09T18:48:05.834Z,18.36
2023-05-09T18:50:32.499Z,18.40
2023-05-09T18:52:59.550Z,18.22
2023-05-09T18:55:26.717Z,18.24
2023-05-09T18:57:53.257Z,18.17
2023-05-09T19:00:19.717Z,18.17
2023-05-09T19:02:46.172Z,18.13
2023-05-09T19:05:12.689Z,18.09
2023-05-09T19:07:39.639Z,18.07
2023-05-09T19:10:08.287Z,17.97
2023-05-09T19:12:37.742Z,17.96
2023-05-09T19:15:05.368Z,17.90
2023-05-09T19:17:32.750Z,17.86
2023-05-09T19:19:59.296Z,17.78
2023-05-09T19:22:26.502Z,17.68
2023-05-09T19:24:52.947Z,17.67
2023-05-09T19:27:19.590Z,17.64
2023-05-09T19:29:47.496Z,17.61
2023-05-09T19:32:17.751Z,17.52
2023-05-09T19:34:44.162Z,17.58
2023-05-09T19:37:10.600Z,17.55
2023-05-09T19:39:37.298Z,17.52
2023-05-09T19:42:03.874Z,17.34
2023-05-09T19:44:30.443Z,17.40
2023-05-09T19:46:58.397Z,17.32
2023-05-09T19:49:24.927Z,17.26
2023-05-09T19:51:51.281Z,17.23
2023-05-09T19:54:17.694Z,17.29
2023-05-09T19:56:44.202Z,17.21
2023-05-09T19:59:10.646Z,17.15
2023-05-09T20:01:37.915Z,17.10
2023-05-09T20:04:04.525Z,17.15
2023-05-09T20:06:31.346Z,17.07
2023-05-09T20:08:57.843Z,16.96
2023-05-09T20:11:24.287Z,16.91
2023-05-09T20:13:50.823Z,16.97
2023-05-09T20:16:17.423Z,16.86
2023-05-09T20:18:44.120Z,16.79
2023-05-09T20:21:10.772Z,16.77
2023-05-09T20:23:39.460Z,16.66
2023-05-09T20:26:06.034Z,16.72
2023-05-09T20:28:32.538Z,16.68
2023-05-09T20:30:59.076Z,16.62
2023-05-09T20:33:25.620Z,16.51
2023-05-09T20:35:52.137Z,16.52
2023-05-09T20:38:19.100Z,16.49
2023-05-09T20:40:45.501Z,16.48
2023-05-09T20:43:12.188Z,16.42
2023-05-09T20:45:38.802Z,16.42
2023-05-09T20:48:06.739Z,16.43
2023-05-09T20:50:33.510Z,16.41
2023-05-09T20:53:00.124Z,16.35
2023-05-09T20:55:27.055Z,16.23
2023-05-09T20:57:53.487Z,16.19
2023-05-09T21:00:19.935Z,16.24
2023-05-09T21:02:46.621Z,16.20
2023-05-09T21:05:13.123Z,16.21
2023-05-09T21:07:39.660Z,16.19
2023-05-09T21:10:06.802Z,16.20
2023-05-09T21:12:33.349Z,16.14
2023-05-09T21:14:59.924Z,15.99
2023-05-09T21:17:26.502Z,15.99
2023-05-09T21:19:53.218Z,15.99
2023-05-09T21:22:19.626Z,16.02
2023-05-09T21:24:46.374Z,15.90
2023-05-09T21:27:12.894Z,15.91
2023-05-09T21:29:39.562Z,15.86
2023-05-09T21:32:06.080Z,15.85
2023-05-09T21:34:32.826Z,15.81
2023-05-09T21:36:59.231Z,15.41
2023-05-09T21:39:26.936Z,15.18
2023-05-09T21:41:53.370Z,15.16
2023-05-09T21:44:19.810Z,15.07
2023-05-09T21:46:46.555Z,15.09
2023-05-09T21:49:16.488Z,15.17
2023-05-09T21:51:42.970Z,15.14
2023-05-09T21:54:10.756Z,15.01
2023-05-09T21:56:37.245Z,14.97
2023-05-09T21:59:03.752Z,14.95
2023-05-09T22:01:30.194Z,14.94
2023-05-09T22:03:56.703Z,14.97
2023-05-09T22:06:23.312Z,15.03
2023-05-09T22:08:51.058Z,15.08
2023-05-09T22:11:18.211Z,15.07
2023-05-09T22:13:44.592Z,15.05
2023-05-09T22:16:11.110Z,15.08
2023-05-09T22:18:37.685Z,15.08
2023-05-09T22:21:04.411Z,15.26
2023-05-09T22:23:31.370Z,15.10
2023-05-09T22:25:58.034Z,15.07
2023-05-09T22:28:24.511Z,15.07
2023-05-09T22:30:50.912Z,15.11
2023-05-09T22:33:17.351Z,15.14
2023-05-09T22:35:43.794Z,15.06
2023-05-09T22:38:10.929Z,14.96
2023-05-09T22:40:37.832Z,14.96
2023-05-09T22:43:04.413Z,14.91
2023-05-09T22:45:30.858Z,14.88
2023-05-09T22:47:57.514Z,15.02
2023-05-09T22:50:23.985Z,14.98
2023-05-09T22:52:50.432Z,14.84
2023-05-09T22:55:16.945Z,14.84
2023-05-09T22:57:43.332Z,14.86
2023-05-09T23:00:10.404Z,14.86
2023-05-09T23:02:37.205Z,15.07
2023-05-09T23:05:03.825Z,14.87
2023-05-09T23:07:30.293Z,14.86
2023-05-09T23:09:56.731Z,14.89
2023-05-09T23:12:23.109Z,14.90
2023-05-09T23:14:49.513Z,14.78
2023-05-09T23:17:16.078Z,14.93
2023-05-09T23:19:42.510Z,14.78
2023-05-09T23:22:08.965Z,14.75
2023-05-09T23:24:35.848Z,14.69
2023-05-09T23:27:05.051Z,14.68
2023-05-09T23:29:33.270Z,14.68
2023-05-09T23:31:59.941Z,14.74
2023-05-09T23:34:26.640Z,14.63
2023-05-09T23:36:53.079Z,14.63
2023-05-09T23:39:19.532Z,14.65
2023-05-09T23:41:46.042Z,14.59
2023-05-09T23:44:12.554Z,14.57
2023-05-09T23:46:39.011Z,14.61
2023-05-09T23:49:05.824Z,14.55
2023-05-09T23:51:32.778Z,14.52
2023-05-09T23:53:59.221Z,14.40
2023-05-09T23:56:27.522Z,14.35
2023-05-09T23:58:54.043Z,14.26
